^^
Saratoga-Weather Station Historical Data
Daily Summary for June 20, 2022 Units:  Both    English   Metric
Daily Weekly Monthly Yearly Custom
  High: Low: Average:
Temperature: 72.3 °F /  22.4 °C 58.6 °F /  14.8 °C 66.6 °F /  19.2 °C
Dew Point: 64.4 °F /  18 °C 50.5 °F /  10.3 °C 58.6 °F /  14.8 °C
Humidity: 94% 56% 77%
Wind Speed: 10.1mph /  16.3km/h - 2.1mph /  3.3km/h
Wind Gust: 15mph /  24.1km/h - -
Wind- - South
Pressure: 30 in /  1014.9 hPa 29.7 in /  1006.4 hPa -
Precipitation: 0.13 in /  3.3 mm    
Historical Graphs
 
 
Tabular Data for June 20, 2022
Time Temperature Dew Point Pressure Wind Wind Speed Wind Gust Humidity Rainfall Rate (Hourly) solar
00:04 72.3 °F /  22.4 °C 59.9 °F /  15.5 °C 29.7in /  1006.4hPa Calm   3mph /  4.8km/h 65% 0in /  0.0mm 0 W/m2
00:09 72.3 °F /  22.4 °C 60.3 °F /  15.7 °C 29.7in /  1006.4hPa Calm   2mph /  3.2km/h 66% 0in /  0.0mm 0 W/m2
00:14 72.1 °F /  22.3 °C 60.1 °F /  15.6 °C 29.7in /  1006.4hPa NNW 2.9mph /  4.7km/h 3mph /  4.8km/h 66% 0in /  0.0mm 0 W/m2
00:19 72.1 °F /  22.3 °C 60.1 °F /  15.6 °C 29.7in /  1006.4hPa ENE 0.9mph /  1.4km/h 1mph /  1.6km/h 66% 0in /  0.0mm 0 W/m2
00:24 72 °F /  22.2 °C 59.9 °F /  15.5 °C 29.7in /  1006.4hPa Calm   2mph /  3.2km/h 66% 0in /  0.0mm 0 W/m2
00:29 72 °F /  22.2 °C 59.9 °F /  15.5 °C 29.7in /  1006.4hPa Calm   4mph /  6.4km/h 66% 0in /  0.0mm 0 W/m2
00:34 71.8 °F /  22.1 °C 59.7 °F /  15.4 °C 29.7in /  1006.4hPa NW 0.9mph /  1.4km/h 4mph /  6.4km/h 66% 0in /  0.0mm 0 W/m2
00:39 71.8 °F /  22.1 °C 59.7 °F /  15.4 °C 29.7in /  1006.4hPa WSW 2mph /  3.2km/h 5mph /  8km/h 66% 0in /  0.0mm 0 W/m2
00:44 71.6 °F /  22 °C 59.7 °F /  15.4 °C 29.7in /  1006.8hPa NNE 2mph /  3.2km/h 4mph /  6.4km/h 66% 0in /  0.0mm 0 W/m2
00:49 71.6 °F /  22 °C 59.7 °F /  15.4 °C 29.7in /  1006.8hPa NE 0.9mph /  1.4km/h 5mph /  8km/h 66% 0in /  0.0mm 0 W/m2
00:55 71.4 °F /  21.9 °C 59.5 °F /  15.3 °C 29.7in /  1006.8hPa NE 0.9mph /  1.4km/h 5mph /  8km/h 66% 0in /  0.0mm 0 W/m2
01:00 71.2 °F /  21.8 °C 59.4 °F /  15.2 °C 29.7in /  1006.8hPa South 2mph /  3.2km/h 3mph /  4.8km/h 66% 0in /  0.0mm 0 W/m2
01:05 71.2 °F /  21.8 °C 59.4 °F /  15.2 °C 29.7in /  1006.8hPa NW 0.9mph /  1.4km/h 2mph /  3.2km/h 66% 0in /  0.0mm 0 W/m2
01:10 71.2 °F /  21.8 °C 59.4 °F /  15.2 °C 29.7in /  1006.8hPa North 2.9mph /  4.7km/h 5mph /  8km/h 66% 0in /  0.0mm 0 W/m2
01:15 71.1 °F /  21.7 °C 59.2 °F /  15.1 °C 29.7in /  1006.8hPa NNE 0.9mph /  1.4km/h 5mph /  8km/h 66% 0in /  0.0mm 0 W/m2
01:20 71.1 °F /  21.7 °C 59.2 °F /  15.1 °C 29.7in /  1006.8hPa NNW 2mph /  3.2km/h 5mph /  8km/h 66% 0in /  0.0mm 0 W/m2
01:25 71.1 °F /  21.7 °C 59.2 °F /  15.1 °C 29.7in /  1006.8hPa NW 2mph /  3.2km/h 2mph /  3.2km/h 66% 0in /  0.0mm 0 W/m2
01:30 70.9 °F /  21.6 °C 59.4 °F /  15.2 °C 29.7in /  1006.8hPa ENE 0.9mph /  1.4km/h 3mph /  4.8km/h 67% 0in /  0.0mm 0 W/m2
01:35 70.9 °F /  21.6 °C 59.4 °F /  15.2 °C 29.7in /  1007.1hPa ENE 0.9mph /  1.4km/h 4mph /  6.4km/h 67% 0in /  0.0mm 0 W/m2
01:40 70.9 °F /  21.6 °C 59.4 °F /  15.2 °C 29.8in /  1008.1hPa WNW 10.1mph /  16.3km/h 10mph /  16.1km/h 67% 0in /  0.0mm 0 W/m2
01:45 70.7 °F /  21.5 °C 59.2 °F /  15.1 °C 29.8in /  1007.8hPa SSW 2.9mph /  4.7km/h 8mph /  12.9km/h 67% 0in /  0.0mm 0 W/m2
01:50 70.5 °F /  21.4 °C 59 °F /  15 °C 29.8in /  1007.8hPa WNW 2.9mph /  4.7km/h 7mph /  11.3km/h 67% 0in /  0.0mm 0 W/m2
01:55 70.5 °F /  21.4 °C 59 °F /  15 °C 29.8in /  1008.5hPa West 6.9mph /  11.1km/h 14mph /  22.5km/h 67% 0in /  0.0mm 0 W/m2
02:00 70.5 °F /  21.4 °C 59 °F /  15 °C 29.8in /  1008.1hPa WNW 2.9mph /  4.7km/h 6mph /  9.7km/h 67% 0in /  0.0mm 0 W/m2
02:05 70.5 °F /  21.4 °C 59 °F /  15 °C 29.8in /  1008.5hPa NNW 2.9mph /  4.7km/h 14mph /  22.5km/h 67% 0in /  0.0mm 0 W/m2
02:10 70.3 °F /  21.3 °C 58.8 °F /  14.9 °C 29.8in /  1008.8hPa West 6.9mph /  11.1km/h 11mph /  17.7km/h 67% 0in /  0.0mm 0 W/m2
02:15 69.8 °F /  21 °C 58.8 °F /  14.9 °C 29.8in /  1008.8hPa West 6mph /  9.7km/h 11mph /  17.7km/h 68% 0in /  0.0mm 0 W/m2
02:20 69.4 °F /  20.8 °C 58.5 °F /  14.7 °C 29.8in /  1009.1hPa North 10.1mph /  16.3km/h 10mph /  16.1km/h 68% 0in /  0.0mm 0 W/m2
02:25 69.1 °F /  20.6 °C 58.5 °F /  14.7 °C 29.8in /  1008.5hPa WNW 2mph /  3.2km/h 10mph /  16.1km/h 69% 0in /  0.0mm 0 W/m2
02:30 69.1 °F /  20.6 °C 58.5 °F /  14.7 °C 29.8in /  1008.5hPa North 2.9mph /  4.7km/h 8mph /  12.9km/h 69% 0in /  0.0mm 0 W/m2
02:35 68.9 °F /  20.5 °C 58.6 °F /  14.8 °C 29.8in /  1008.5hPa WNW 2.9mph /  4.7km/h 8mph /  12.9km/h 70% 0in /  0.0mm 0 W/m2
02:40 68.9 °F /  20.5 °C 58.6 °F /  14.8 °C 29.8in /  1008.1hPa Calm   2mph /  3.2km/h 70% 0in /  0.0mm 0 W/m2
02:45 68.7 °F /  20.4 °C 58.5 °F /  14.7 °C 29.8in /  1008.1hPa ESE 0.9mph /  1.4km/h 3mph /  4.8km/h 70% 0in /  0.0mm 0 W/m2
02:50 68.5 °F /  20.3 °C 58.8 °F /  14.9 °C 29.8in /  1007.8hPa ENE 0.9mph /  1.4km/h 1mph /  1.6km/h 71% 0in /  0.0mm 0 W/m2
02:55 68.4 °F /  20.2 °C 59 °F /  15 °C 29.8in /  1007.8hPa East 2.9mph /  4.7km/h 6mph /  9.7km/h 72% 0in /  0.0mm 0 W/m2
03:00 68.4 °F /  20.2 °C 59.7 °F /  15.4 °C 29.8in /  1007.8hPa WNW 2mph /  3.2km/h 5mph /  8km/h 74% 0in /  0.0mm 0 W/m2
03:05 68.2 °F /  20.1 °C 59.5 °F /  15.3 °C 29.8in /  1007.8hPa ENE 2mph /  3.2km/h 2mph /  3.2km/h 74% 0in /  0.0mm 0 W/m2
03:10 67.8 °F /  19.9 °C 59.5 °F /  15.3 °C 29.8in /  1007.8hPa Calm   2mph /  3.2km/h 75% 0in /  0.0mm 0 W/m2
03:15 67.8 °F /  19.9 °C 59.5 °F /  15.3 °C 29.8in /  1008.1hPa North 0.9mph /  1.4km/h 2mph /  3.2km/h 75% 0in /  0.0mm 0 W/m2
03:20 67.6 °F /  19.8 °C 59.7 °F /  15.4 °C 29.8in /  1008.1hPa NE 0.9mph /  1.4km/h 4mph /  6.4km/h 76% 0in /  0.0mm 0 W/m2
03:25 67.5 °F /  19.7 °C 59.5 °F /  15.3 °C 29.8in /  1007.8hPa North 4mph /  6.4km/h 4mph /  6.4km/h 76% 0in /  0.0mm 0 W/m2
03:30 67.3 °F /  19.6 °C 59.9 °F /  15.5 °C 29.8in /  1007.8hPa Calm   2mph /  3.2km/h 77% 0in /  0.0mm 0 W/m2
03:35 67.3 °F /  19.6 °C 59.9 °F /  15.5 °C 29.8in /  1007.8hPa NW 2.9mph /  4.7km/h 4mph /  6.4km/h 77% 0in /  0.0mm 0 W/m2
03:40 67.1 °F /  19.5 °C 59.7 °F /  15.4 °C 29.8in /  1007.8hPa Calm   1mph /  1.6km/h 77% 0in /  0.0mm 0 W/m2
03:45 66.9 °F /  19.4 °C 59.5 °F /  15.3 °C 29.8in /  1007.8hPa NW 2mph /  3.2km/h 4mph /  6.4km/h 77% 0in /  0.0mm 0 W/m2
03:50 66.9 °F /  19.4 °C 59.5 °F /  15.3 °C 29.8in /  1007.8hPa ENE 2mph /  3.2km/h 2mph /  3.2km/h 77% 0in /  0.0mm 0 W/m2
03:55 66.9 °F /  19.4 °C 59.5 °F /  15.3 °C 29.8in /  1007.8hPa NNW 0.9mph /  1.4km/h 2mph /  3.2km/h 77% 0in /  0.0mm 0 W/m2
04:00 66.9 °F /  19.4 °C 59.5 °F /  15.3 °C 29.8in /  1007.8hPa NNE 0.9mph /  1.4km/h 3mph /  4.8km/h 77% 0in /  0.0mm 0 W/m2
04:05 66.9 °F /  19.4 °C 59.9 °F /  15.5 °C 29.8in /  1008.1hPa ENE 2mph /  3.2km/h 6mph /  9.7km/h 78% 0in /  0.0mm 0 W/m2
04:10 66.7 °F /  19.3 °C 59.7 °F /  15.4 °C 29.8in /  1007.8hPa Calm   1mph /  1.6km/h 78% 0in /  0.0mm 0 W/m2
04:15 66.7 °F /  19.3 °C 59.7 °F /  15.4 °C 29.8in /  1008.1hPa Calm   5mph /  8km/h 78% 0in /  0.0mm 0 W/m2
04:20 66.7 °F /  19.3 °C 59.7 °F /  15.4 °C 29.8in /  1008.1hPa Calm   2mph /  3.2km/h 78% 0in /  0.0mm 0 W/m2
04:25 66.6 °F /  19.2 °C 59.5 °F /  15.3 °C 29.8in /  1008.5hPa WNW 0.9mph /  1.4km/h 2mph /  3.2km/h 78% 0in /  0.0mm 0 W/m2
04:30 66.7 °F /  19.3 °C 59.7 °F /  15.4 °C 29.8in /  1009.5hPa WNW 8.1mph /  13km/h 10mph /  16.1km/h 78% 0in /  0.0mm 0 W/m2
04:35 66.7 °F /  19.3 °C 59.4 °F /  15.2 °C 29.8in /  1009.8hPa West 4mph /  6.4km/h 13mph /  20.9km/h 77% 0in /  0.0mm 0 W/m2
04:40 66.7 °F /  19.3 °C 60.1 °F /  15.6 °C 29.8in /  1009.1hPa WNW 4.9mph /  7.9km/h 11mph /  17.7km/h 79% 0in /  0.0mm 0 W/m2
04:45 66.6 °F /  19.2 °C 60.3 °F /  15.7 °C 29.8in /  1009.1hPa WNW 6.9mph /  11.1km/h 15mph /  24.1km/h 80% 0in /  0.0mm 0 W/m2
04:50 66.6 °F /  19.2 °C 60.3 °F /  15.7 °C 29.8in /  1009.1hPa WSW 2mph /  3.2km/h 11mph /  17.7km/h 80% 0in /  0.0mm 0 W/m2
04:55 66.6 °F /  19.2 °C 60.3 °F /  15.7 °C 29.8in /  1009.1hPa West 2mph /  3.2km/h 14mph /  22.5km/h 80% 0in /  0.0mm 0 W/m2
05:00 66.6 °F /  19.2 °C 60.3 °F /  15.7 °C 29.8in /  1008.8hPa WNW 2mph /  3.2km/h 6mph /  9.7km/h 80% 0in /  0.0mm 0 W/m2
05:05 66.6 °F /  19.2 °C 60.3 °F /  15.7 °C 29.8in /  1008.8hPa WNW 2mph /  3.2km/h 3mph /  4.8km/h 80% 0in /  0.0mm 0 W/m2
05:10 66.6 °F /  19.2 °C 60.3 °F /  15.7 °C 29.8in /  1008.8hPa WNW 2mph /  3.2km/h 5mph /  8km/h 80% 0in /  0.0mm 0 W/m2
05:15 66.6 °F /  19.2 °C 60.3 °F /  15.7 °C 29.8in /  1008.8hPa East 0.9mph /  1.4km/h 1mph /  1.6km/h 80% 0in /  0.0mm 0 W/m2
05:20 66.6 °F /  19.2 °C 60.3 °F /  15.7 °C 29.8in /  1008.8hPa Calm     80% 0in /  0.0mm 0 W/m2
05:25 66.6 °F /  19.2 °C 60.3 °F /  15.7 °C 29.8in /  1009.1hPa NNW 0.9mph /  1.4km/h 2mph /  3.2km/h 80% 0in /  0.0mm 0 W/m2
05:30 66.6 °F /  19.2 °C 60.3 °F /  15.7 °C 29.8in /  1009.8hPa West 2.9mph /  4.7km/h 7mph /  11.3km/h 80% 0in /  0.0mm 0 W/m2
05:35 66.6 °F /  19.2 °C 60.6 °F /  15.9 °C 29.9in /  1010.8hPa WNW 6mph /  9.7km/h 9mph /  14.5km/h 81% 0in /  0.0mm 0 W/m2
05:40 66 °F /  18.9 °C 60.6 °F /  15.9 °C 29.8in /  1009.1hPa NNW 0.9mph /  1.4km/h 7mph /  11.3km/h 83% 0.05in /  1.3mm 0 W/m2
05:45 65.5 °F /  18.6 °C 60.8 °F /  16 °C 29.8in /  1008.1hPa NNW 0.9mph /  1.4km/h 2mph /  3.2km/h 85% 0.06in /  1.5mm 0 W/m2
05:50 64.9 °F /  18.3 °C 61 °F /  16.1 °C 29.8in /  1009.1hPa WSW 2mph /  3.2km/h 3mph /  4.8km/h 87% 0.07in /  1.8mm 0 W/m2
05:55 64.6 °F /  18.1 °C 61 °F /  16.1 °C 29.8in /  1009.1hPa West 0.9mph /  1.4km/h 2mph /  3.2km/h 88% 0.07in /  1.8mm 5 W/m2
06:00 64.2 °F /  17.9 °C 61 °F /  16.1 °C 29.8in /  1009.1hPa West 2mph /  3.2km/h 2mph /  3.2km/h 89% 0.07in /  1.8mm 9 W/m2
06:05 64 °F /  17.8 °C 61 °F /  16.1 °C 29.8in /  1009.8hPa West 0.9mph /  1.4km/h 6mph /  9.7km/h 90% 0.07in /  1.8mm 7 W/m2
06:10 63.9 °F /  17.7 °C 60.8 °F /  16 °C 29.8in /  1009.8hPa Calm   3mph /  4.8km/h 90% 0.07in /  1.8mm 0 W/m2
06:15 63.7 °F /  17.6 °C 61 °F /  16.1 °C 29.8in /  1009.8hPa West 0.9mph /  1.4km/h 5mph /  8km/h 91% 0.07in /  1.8mm 0 W/m2
06:20 63.7 °F /  17.6 °C 61 °F /  16.1 °C 29.8in /  1009.8hPa ESE 2mph /  3.2km/h 2mph /  3.2km/h 91% 0.08in /  2.0mm 0 W/m2
06:25 63.9 °F /  17.7 °C 61.5 °F /  16.4 °C 29.8in /  1009.8hPa Calm   2mph /  3.2km/h 92% 0.09in /  2.3mm 0 W/m2
06:30 63.9 °F /  17.7 °C 61.5 °F /  16.4 °C 29.8in /  1010.2hPa East 2mph /  3.2km/h 2mph /  3.2km/h 92% 0.09in /  2.3mm 0 W/m2
06:35 63.7 °F /  17.6 °C 61.3 °F /  16.3 °C 29.8in /  1009.8hPa ENE 2.9mph /  4.7km/h 6mph /  9.7km/h 92% 0.09in /  2.3mm 0 W/m2
06:40 63.5 °F /  17.5 °C 61.2 °F /  16.2 °C 29.8in /  1009.5hPa NNE 0.9mph /  1.4km/h 2mph /  3.2km/h 92% 0.06in /  1.5mm 0 W/m2
06:45 63.3 °F /  17.4 °C 61 °F /  16.1 °C 29.8in /  1009.5hPa Calm   1mph /  1.6km/h 92% 0.04in /  1.0mm 5 W/m2
06:50 63.5 °F /  17.5 °C 61.2 °F /  16.2 °C 29.8in /  1009.5hPa WNW 0.9mph /  1.4km/h 2mph /  3.2km/h 92% 0.05in /  1.3mm 9 W/m2
06:55 63.5 °F /  17.5 °C 61.2 °F /  16.2 °C 29.8in /  1009.8hPa Calm   1mph /  1.6km/h 92% 0.06in /  1.5mm 18 W/m2
07:00 63.5 °F /  17.5 °C 61.5 °F /  16.4 °C 29.8in /  1009.1hPa ENE 2.9mph /  4.7km/h 3mph /  4.8km/h 93% 0.06in /  1.5mm 19 W/m2
07:05 63.7 °F /  17.6 °C 61.7 °F /  16.5 °C 29.8in /  1009.1hPa Calm     93% 0.06in /  1.5mm 12 W/m2
07:10 63.7 °F /  17.6 °C 61.7 °F /  16.5 °C 29.8in /  1009.1hPa Calm   3mph /  4.8km/h 93% 0.06in /  1.5mm 18 W/m2
07:15 63.7 °F /  17.6 °C 61.7 °F /  16.5 °C 29.8in /  1009.1hPa Calm     93% 0.06in /  1.5mm 18 W/m2
07:20 63.7 °F /  17.6 °C 61.7 °F /  16.5 °C 29.8in /  1008.8hPa Calm   2mph /  3.2km/h 93% 0.05in /  1.3mm 25 W/m2
07:25 63.7 °F /  17.6 °C 61.7 °F /  16.5 °C 29.8in /  1009.1hPa Calm   2mph /  3.2km/h 93% 0.05in /  1.3mm 40 W/m2
07:30 63.7 °F /  17.6 °C 61.9 °F /  16.6 °C 29.8in /  1009.1hPa Calm     94% 0.04in /  1.0mm 54 W/m2
07:35 63.9 °F /  17.7 °C 62.1 °F /  16.7 °C 29.8in /  1009.1hPa Calm   2mph /  3.2km/h 94% 0.04in /  1.0mm 63 W/m2
07:40 63.9 °F /  17.7 °C 62.1 °F /  16.7 °C 29.8in /  1009.1hPa Calm     94% 0.03in /  0.8mm 77 W/m2
07:45 63.9 °F /  17.7 °C 62.1 °F /  16.7 °C 29.8in /  1009.1hPa Calm     94% 0.03in /  0.8mm 91 W/m2
07:50 64 °F /  17.8 °C 62.2 °F /  16.8 °C 29.8in /  1009.5hPa Calm   2mph /  3.2km/h 94% 0.02in /  0.5mm 104 W/m2
07:55 64.2 °F /  17.9 °C 62.4 °F /  16.9 °C 29.8in /  1009.1hPa Calm   4mph /  6.4km/h 94% 0.01in /  0.2mm 91 W/m2
08:01 64.6 °F /  18.1 °C 62.8 °F /  17.1 °C 29.8in /  1009.5hPa Calm     94% 0.01in /  0.2mm 79 W/m2
08:06 64.6 °F /  18.1 °C 62.8 °F /  17.1 °C 29.8in /  1009.5hPa ENE 2mph /  3.2km/h 2mph /  3.2km/h 94% 0.01in /  0.2mm 90 W/m2
08:11 64.6 °F /  18.1 °C 62.8 °F /  17.1 °C 29.8in /  1009.8hPa Calm   1mph /  1.6km/h 94% 0.01in /  0.2mm 139 W/m2
08:16 64.8 °F /  18.2 °C 63 °F /  17.2 °C 29.8in /  1009.8hPa Calm     94% 0.01in /  0.2mm 120 W/m2
08:21 64.8 °F /  18.2 °C 63 °F /  17.2 °C 29.8in /  1010.2hPa Calm   1mph /  1.6km/h 94% 0.01in /  0.2mm 113 W/m2
08:26 64.8 °F /  18.2 °C 63 °F /  17.2 °C 29.8in /  1010.2hPa East 2.9mph /  4.7km/h 3mph /  4.8km/h 94% 0in /  0.0mm 120 W/m2
08:31 64.6 °F /  18.1 °C 62.8 °F /  17.1 °C 29.8in /  1010.2hPa East 2mph /  3.2km/h 2mph /  3.2km/h 94% 0in /  0.0mm 134 W/m2
08:36 64.8 °F /  18.2 °C 62.6 °F /  17 °C 29.8in /  1010.5hPa East 0.9mph /  1.4km/h 2mph /  3.2km/h 93% 0in /  0.0mm 142 W/m2
08:41 64.9 °F /  18.3 °C 63.1 °F /  17.3 °C 29.8in /  1010.5hPa Calm     94% 0in /  0.0mm 156 W/m2
08:46 64.9 °F /  18.3 °C 62.8 °F /  17.1 °C 29.8in /  1010.5hPa ESE 0.9mph /  1.4km/h 2mph /  3.2km/h 93% 0in /  0.0mm 165 W/m2
08:51 65.1 °F /  18.4 °C 63 °F /  17.2 °C 29.8in /  1010.5hPa WNW 0.9mph /  1.4km/h 1mph /  1.6km/h 93% 0in /  0.0mm 169 W/m2
08:56 65.1 °F /  18.4 °C 63 °F /  17.2 °C 29.8in /  1010.5hPa Calm     93% 0in /  0.0mm 213 W/m2
09:01 65.7 °F /  18.7 °C 63.5 °F /  17.5 °C 29.8in /  1010.5hPa West 0.9mph /  1.4km/h 4mph /  6.4km/h 93% 0in /  0.0mm 193 W/m2
09:06 65.7 °F /  18.7 °C 63 °F /  17.2 °C 29.8in /  1010.5hPa NW 0.9mph /  1.4km/h 3mph /  4.8km/h 91% 0in /  0.0mm 176 W/m2
09:11 65.8 °F /  18.8 °C 63.1 °F /  17.3 °C 29.9in /  1010.8hPa West 2mph /  3.2km/h 4mph /  6.4km/h 91% 0in /  0.0mm 169 W/m2
09:16 66 °F /  18.9 °C 63 °F /  17.2 °C 29.9in /  1010.8hPa West 2mph /  3.2km/h 4mph /  6.4km/h 90% 0in /  0.0mm 192 W/m2
09:21 66 °F /  18.9 °C 63 °F /  17.2 °C 29.9in /  1010.8hPa WSW 2mph /  3.2km/h 2mph /  3.2km/h 90% 0in /  0.0mm 218 W/m2
09:26 66.4 °F /  19.1 °C 63.3 °F /  17.4 °C 29.9in /  1010.8hPa WNW 0.9mph /  1.4km/h 3mph /  4.8km/h 90% 0in /  0.0mm 221 W/m2
09:31 66.6 °F /  19.2 °C 63.1 °F /  17.3 °C 29.9in /  1011.2hPa West 2mph /  3.2km/h 4mph /  6.4km/h 89% 0in /  0.0mm 274 W/m2
09:36 66.7 °F /  19.3 °C 63.7 °F /  17.6 °C 29.9in /  1011.5hPa WNW 2mph /  3.2km/h 6mph /  9.7km/h 90% 0in /  0.0mm 128 W/m2
09:41 66.9 °F /  19.4 °C 63.5 °F /  17.5 °C 29.9in /  1011.5hPa WSW 4mph /  6.4km/h 6mph /  9.7km/h 89% 0in /  0.0mm 97 W/m2
09:46 66.7 °F /  19.3 °C 63.3 °F /  17.4 °C 29.9in /  1011.9hPa West 6.9mph /  11.1km/h 7mph /  11.3km/h 89% 0in /  0.0mm 102 W/m2
09:51 66.6 °F /  19.2 °C 63.5 °F /  17.5 °C 29.9in /  1011.9hPa West 0.9mph /  1.4km/h 3mph /  4.8km/h 90% 0in /  0.0mm 149 W/m2
09:56 66.7 °F /  19.3 °C 63.7 °F /  17.6 °C 29.9in /  1011.9hPa SW 2.9mph /  4.7km/h 5mph /  8km/h 90% 0in /  0.0mm 155 W/m2
10:01 66.7 °F /  19.3 °C 63.7 °F /  17.6 °C 29.9in /  1011.9hPa Calm   2mph /  3.2km/h 90% 0in /  0.0mm 100 W/m2
10:06 66.7 °F /  19.3 °C 63.3 °F /  17.4 °C 29.9in /  1011.9hPa NNW 2mph /  3.2km/h 4mph /  6.4km/h 89% 0in /  0.0mm 132 W/m2
10:11 66.7 °F /  19.3 °C 63.7 °F /  17.6 °C 29.9in /  1011.9hPa NW 2mph /  3.2km/h 3mph /  4.8km/h 90% 0in /  0.0mm 216 W/m2
10:16 66.9 °F /  19.4 °C 63.5 °F /  17.5 °C 29.9in /  1011.9hPa WNW 2mph /  3.2km/h 5mph /  8km/h 89% 0in /  0.0mm 241 W/m2
10:21 67.1 °F /  19.5 °C 63.7 °F /  17.6 °C 29.9in /  1011.9hPa WSW 2mph /  3.2km/h 7mph /  11.3km/h 89% 0in /  0.0mm 253 W/m2
10:26 67.5 °F /  19.7 °C 64.4 °F /  18 °C 29.9in /  1011.9hPa NW 6mph /  9.7km/h 6mph /  9.7km/h 90% 0in /  0.0mm 445 W/m2
10:31 68.4 °F /  20.2 °C 64.4 °F /  18 °C 29.9in /  1011.5hPa West 2.9mph /  4.7km/h 5mph /  8km/h 87% 0in /  0.0mm 330 W/m2
10:36 68.5 °F /  20.3 °C 64.2 °F /  17.9 °C 29.9in /  1011.5hPa NNW 4mph /  6.4km/h 4mph /  6.4km/h 86% 0in /  0.0mm 563 W/m2
10:41 69.1 °F /  20.6 °C 64 °F /  17.8 °C 29.9in /  1011.9hPa West 4mph /  6.4km/h 7mph /  11.3km/h 84% 0in /  0.0mm 547 W/m2
10:46 68.9 °F /  20.5 °C 63.9 °F /  17.7 °C 29.9in /  1011.9hPa WSW 2.9mph /  4.7km/h 8mph /  12.9km/h 84% 0in /  0.0mm 116 W/m2
10:51 68.7 °F /  20.4 °C 64 °F /  17.8 °C 29.9in /  1011.9hPa WSW 4mph /  6.4km/h 5mph /  8km/h 85% 0in /  0.0mm 214 W/m2
10:56 68.5 °F /  20.3 °C 63.5 °F /  17.5 °C 29.9in /  1011.9hPa NW 4.9mph /  7.9km/h 7mph /  11.3km/h 84% 0in /  0.0mm 260 W/m2
11:01 68.7 °F /  20.4 °C 63.7 °F /  17.6 °C 29.9in /  1011.9hPa NW 4mph /  6.4km/h 7mph /  11.3km/h 84% 0in /  0.0mm 262 W/m2
11:06 68.9 °F /  20.5 °C 63.9 °F /  17.7 °C 29.9in /  1011.9hPa WSW 4mph /  6.4km/h 7mph /  11.3km/h 84% 0in /  0.0mm 214 W/m2
11:11 68.5 °F /  20.3 °C 63.9 °F /  17.7 °C 29.9in /  1011.9hPa WNW 4mph /  6.4km/h 6mph /  9.7km/h 85% 0in /  0.0mm 165 W/m2
11:16 68.5 °F /  20.3 °C 63.9 °F /  17.7 °C 29.9in /  1012.2hPa WNW 2mph /  3.2km/h 6mph /  9.7km/h 85% 0in /  0.0mm 128 W/m2
11:21 68.5 °F /  20.3 °C 63.5 °F /  17.5 °C 29.9in /  1012.2hPa WSW 2.9mph /  4.7km/h 7mph /  11.3km/h 84% 0in /  0.0mm 54 W/m2
11:26 68.4 °F /  20.2 °C 63.7 °F /  17.6 °C 29.9in /  1012.5hPa WNW 4mph /  6.4km/h 4mph /  6.4km/h 85% 0in /  0.0mm 121 W/m2
11:31 68.2 °F /  20.1 °C 63.5 °F /  17.5 °C 29.9in /  1012.5hPa WSW 2.9mph /  4.7km/h 8mph /  12.9km/h 85% 0in /  0.0mm 376 W/m2
11:36 68.4 °F /  20.2 °C 64 °F /  17.8 °C 29.9in /  1012.5hPa WSW 2mph /  3.2km/h 6mph /  9.7km/h 86% 0in /  0.0mm 522 W/m2
11:41 69.1 °F /  20.6 °C 64.4 °F /  18 °C 29.9in /  1012.5hPa WSW 2.9mph /  4.7km/h 6mph /  9.7km/h 85% 0in /  0.0mm 455 W/m2
11:46 69.1 °F /  20.6 °C 63.7 °F /  17.6 °C 29.9in /  1012.5hPa West 2mph /  3.2km/h 4mph /  6.4km/h 83% 0in /  0.0mm 107 W/m2
11:51 68.5 °F /  20.3 °C 63.1 °F /  17.3 °C 29.9in /  1012.9hPa NNW 2mph /  3.2km/h 7mph /  11.3km/h 83% 0in /  0.0mm 47 W/m2
11:56 67.5 °F /  19.7 °C 62.4 °F /  16.9 °C 29.9in /  1012.9hPa NW 4.9mph /  7.9km/h 7mph /  11.3km/h 84% 0in /  0.0mm 148 W/m2
12:01 66.9 °F /  19.4 °C 62.2 °F /  16.8 °C 29.9in /  1012.9hPa NW 2mph /  3.2km/h 8mph /  12.9km/h 85% 0in /  0.0mm 188 W/m2
12:06 66.7 °F /  19.3 °C 62.4 °F /  16.9 °C 29.9in /  1012.9hPa WNW 2.9mph /  4.7km/h 4mph /  6.4km/h 86% 0in /  0.0mm 258 W/m2
12:11 66.9 °F /  19.4 °C 62.2 °F /  16.8 °C 29.9in /  1012.9hPa NW 2mph /  3.2km/h 5mph /  8km/h 85% 0in /  0.0mm 251 W/m2
12:16 66.9 °F /  19.4 °C 62.2 °F /  16.8 °C 29.9in /  1012.9hPa NW 2.9mph /  4.7km/h 6mph /  9.7km/h 85% 0in /  0.0mm 229 W/m2
12:21 66.9 °F /  19.4 °C 62.2 °F /  16.8 °C 29.9in /  1012.9hPa WNW 2.9mph /  4.7km/h 8mph /  12.9km/h 85% 0in /  0.0mm 132 W/m2
12:26 66.9 °F /  19.4 °C 62.2 °F /  16.8 °C 29.9in /  1012.9hPa WNW 2.9mph /  4.7km/h 4mph /  6.4km/h 85% 0in /  0.0mm 209 W/m2
12:31 66.9 °F /  19.4 °C 62.2 °F /  16.8 °C 29.9in /  1012.9hPa NNW 2mph /  3.2km/h 8mph /  12.9km/h 85% 0in /  0.0mm 232 W/m2
12:36 67.1 °F /  19.5 °C 62.1 °F /  16.7 °C 29.9in /  1012.9hPa NW 2mph /  3.2km/h 7mph /  11.3km/h 84% 0in /  0.0mm 135 W/m2
12:41 67.1 °F /  19.5 °C 62.1 °F /  16.7 °C 29.9in /  1013.2hPa WSW 2.9mph /  4.7km/h 9mph /  14.5km/h 84% 0in /  0.0mm 102 W/m2
12:46 66.6 °F /  19.2 °C 61.2 °F /  16.2 °C 29.9in /  1013.2hPa West 6.9mph /  11.1km/h 9mph /  14.5km/h 83% 0in /  0.0mm 146 W/m2
12:51 65.8 °F /  18.8 °C 60.8 °F /  16 °C 29.9in /  1013.2hPa West 6mph /  9.7km/h 7mph /  11.3km/h 84% 0in /  0.0mm 153 W/m2
12:56 65.7 °F /  18.7 °C 61 °F /  16.1 °C 29.9in /  1013.2hPa NW 0.9mph /  1.4km/h 7mph /  11.3km/h 85% 0in /  0.0mm 213 W/m2
13:01 66 °F /  18.9 °C 61 °F /  16.1 °C 29.9in /  1013.2hPa NNW 2.9mph /  4.7km/h 10mph /  16.1km/h 84% 0in /  0.0mm 264 W/m2
13:06 66 °F /  18.9 °C 61 °F /  16.1 °C 29.9in /  1013.2hPa West 4mph /  6.4km/h 8mph /  12.9km/h 84% 0in /  0.0mm 248 W/m2
13:11 65.8 °F /  18.8 °C 60.8 °F /  16 °C 29.9in /  1013.2hPa NNW 2mph /  3.2km/h 8mph /  12.9km/h 84% 0in /  0.0mm 385 W/m2
13:16 66 °F /  18.9 °C 61 °F /  16.1 °C 29.9in /  1013.2hPa East 0.9mph /  1.4km/h 6mph /  9.7km/h 84% 0in /  0.0mm 352 W/m2
13:21 66.4 °F /  19.1 °C 61.3 °F /  16.3 °C 29.9in /  1013.2hPa Calm   8mph /  12.9km/h 84% 0in /  0.0mm 322 W/m2
13:26 66.7 °F /  19.3 °C 61.3 °F /  16.3 °C 29.9in /  1013.2hPa WSW 2.9mph /  4.7km/h 4mph /  6.4km/h 83% 0in /  0.0mm 264 W/m2
13:31 67.1 °F /  19.5 °C 61.3 °F /  16.3 °C 29.9in /  1013.2hPa Calm   3mph /  4.8km/h 82% 0in /  0.0mm 276 W/m2
13:36 67.5 °F /  19.7 °C 62.1 °F /  16.7 °C 29.9in /  1013.2hPa NE 0.9mph /  1.4km/h 4mph /  6.4km/h 83% 0in /  0.0mm 346 W/m2
13:41 67.6 °F /  19.8 °C 61.5 °F /  16.4 °C 29.9in /  1013.2hPa Calm   2mph /  3.2km/h 81% 0in /  0.0mm 308 W/m2
13:46 67.8 °F /  19.9 °C 61.7 °F /  16.5 °C 29.9in /  1013.2hPa NNE 0.9mph /  1.4km/h 2mph /  3.2km/h 81% 0in /  0.0mm 396 W/m2
13:51 68 °F /  20 °C 61.9 °F /  16.6 °C 29.9in /  1013.5hPa WNW 0.9mph /  1.4km/h 4mph /  6.4km/h 81% 0in /  0.0mm 329 W/m2
13:56 68.2 °F /  20.1 °C 61.7 °F /  16.5 °C 29.9in /  1013.5hPa NNE 0.9mph /  1.4km/h 4mph /  6.4km/h 80% 0in /  0.0mm 250 W/m2
14:01 68.4 °F /  20.2 °C 61.9 °F /  16.6 °C 29.9in /  1013.5hPa Calm   1mph /  1.6km/h 80% 0in /  0.0mm 334 W/m2
14:06 68.5 °F /  20.3 °C 62.1 °F /  16.7 °C 29.9in /  1013.5hPa NNE 2mph /  3.2km/h 5mph /  8km/h 80% 0in /  0.0mm 244 W/m2
14:11 68.5 °F /  20.3 °C 61.7 °F /  16.5 °C 29.9in /  1013.5hPa NE 2.9mph /  4.7km/h 4mph /  6.4km/h 79% 0in /  0.0mm 246 W/m2
14:17 68.4 °F /  20.2 °C 61.5 °F /  16.4 °C 29.9in /  1013.5hPa NNW 2mph /  3.2km/h 2mph /  3.2km/h 79% 0in /  0.0mm 234 W/m2
14:22 68.4 °F /  20.2 °C 61.5 °F /  16.4 °C 29.9in /  1013.5hPa NE 4mph /  6.4km/h 6mph /  9.7km/h 79% 0in /  0.0mm 174 W/m2
14:27 68.2 °F /  20.1 °C 61.3 °F /  16.3 °C 29.9in /  1013.5hPa NNE 0.9mph /  1.4km/h 4mph /  6.4km/h 79% 0in /  0.0mm 141 W/m2
14:32 67.8 °F /  19.9 °C 61 °F /  16.1 °C 29.9in /  1013.5hPa West 2.9mph /  4.7km/h 6mph /  9.7km/h 79% 0in /  0.0mm 172 W/m2
14:37 67.6 °F /  19.8 °C 61 °F /  16.1 °C 29.9in /  1013.5hPa NW 2.9mph /  4.7km/h 6mph /  9.7km/h 79% 0in /  0.0mm 141 W/m2
14:42 67.6 °F /  19.8 °C 61 °F /  16.1 °C 29.9in /  1013.5hPa SE 2mph /  3.2km/h 3mph /  4.8km/h 79% 0in /  0.0mm 91 W/m2
14:47 67.5 °F /  19.7 °C 60.8 °F /  16 °C 29.9in /  1013.5hPa NE 4.9mph /  7.9km/h 5mph /  8km/h 79% 0in /  0.0mm 128 W/m2
14:52 67.3 °F /  19.6 °C 61 °F /  16.1 °C 29.9in /  1013.9hPa NNW 4.9mph /  7.9km/h 5mph /  8km/h 80% 0in /  0.0mm 229 W/m2
14:57 67.3 °F /  19.6 °C 60.6 °F /  15.9 °C 29.9in /  1013.9hPa NW 2.9mph /  4.7km/h 5mph /  8km/h 79% 0in /  0.0mm 200 W/m2
15:02 66.7 °F /  19.3 °C 60.1 °F /  15.6 °C 29.9in /  1013.9hPa NNE 2mph /  3.2km/h 6mph /  9.7km/h 79% 0in /  0.0mm 128 W/m2
15:07 66.4 °F /  19.1 °C 59.7 °F /  15.4 °C 29.9in /  1013.9hPa NE 2.9mph /  4.7km/h 9mph /  14.5km/h 79% 0in /  0.0mm 128 W/m2
15:12 65.8 °F /  18.8 °C 59.2 °F /  15.1 °C 29.9in /  1013.9hPa North 0.9mph /  1.4km/h 5mph /  8km/h 79% 0in /  0.0mm 199 W/m2
15:17 65.7 °F /  18.7 °C 59.4 °F /  15.2 °C 29.9in /  1013.9hPa SSW 2mph /  3.2km/h 9mph /  14.5km/h 80% 0in /  0.0mm 218 W/m2
15:22 65.7 °F /  18.7 °C 59.4 °F /  15.2 °C 29.9in /  1013.9hPa North 2mph /  3.2km/h 8mph /  12.9km/h 80% 0in /  0.0mm 209 W/m2
15:27 65.7 °F /  18.7 °C 59.4 °F /  15.2 °C 29.9in /  1013.9hPa NNW 2.9mph /  4.7km/h 5mph /  8km/h 80% 0in /  0.0mm 190 W/m2
15:32 65.7 °F /  18.7 °C 59.4 °F /  15.2 °C 29.9in /  1013.9hPa NNW 0.9mph /  1.4km/h 4mph /  6.4km/h 80% 0in /  0.0mm 188 W/m2
15:37 65.8 °F /  18.8 °C 59.2 °F /  15.1 °C 29.9in /  1013.9hPa SE 4.9mph /  7.9km/h 7mph /  11.3km/h 79% 0in /  0.0mm 230 W/m2
15:42 66 °F /  18.9 °C 59 °F /  15 °C 29.9in /  1013.9hPa WNW 8.9mph /  14.3km/h 10mph /  16.1km/h 78% 0in /  0.0mm 269 W/m2
15:47 65.8 °F /  18.8 °C 58.8 °F /  14.9 °C 30in /  1014.2hPa NW 4mph /  6.4km/h 11mph /  17.7km/h 78% 0in /  0.0mm 388 W/m2
15:52 65.7 °F /  18.7 °C 58.6 °F /  14.8 °C 30in /  1014.2hPa NW 0.9mph /  1.4km/h 7mph /  11.3km/h 78% 0in /  0.0mm 394 W/m2
15:57 65.7 °F /  18.7 °C 58.3 °F /  14.6 °C 30in /  1014.2hPa NW 4.9mph /  7.9km/h 11mph /  17.7km/h 77% 0in /  0.0mm 221 W/m2
16:02 65.5 °F /  18.6 °C 57.7 °F /  14.3 °C 30in /  1014.2hPa ESE 0.9mph /  1.4km/h 9mph /  14.5km/h 76% 0in /  0.0mm 193 W/m2
16:07 65.3 °F /  18.5 °C 57.9 °F /  14.4 °C 30in /  1014.2hPa NNW 2.9mph /  4.7km/h 3mph /  4.8km/h 77% 0in /  0.0mm 221 W/m2
16:12 65.5 °F /  18.6 °C 57.7 °F /  14.3 °C 30in /  1014.2hPa NW 2mph /  3.2km/h 9mph /  14.5km/h 76% 0in /  0.0mm 272 W/m2
16:17 65.5 °F /  18.6 °C 57.7 °F /  14.3 °C 30in /  1014.2hPa WNW 4mph /  6.4km/h 7mph /  11.3km/h 76% 0in /  0.0mm 244 W/m2
16:22 65.7 °F /  18.7 °C 57.6 °F /  14.2 °C 30in /  1014.2hPa NW 0.9mph /  1.4km/h 6mph /  9.7km/h 75% 0in /  0.0mm 267 W/m2
16:27 65.8 °F /  18.8 °C 57.7 °F /  14.3 °C 30in /  1014.2hPa NE 2.9mph /  4.7km/h 4mph /  6.4km/h 75% 0in /  0.0mm 283 W/m2
16:32 66.2 °F /  19 °C 57.7 °F /  14.3 °C 30in /  1014.2hPa NE 4mph /  6.4km/h 5mph /  8km/h 74% 0in /  0.0mm 380 W/m2
16:37 66.6 °F /  19.2 °C 57.6 °F /  14.2 °C 30in /  1014.2hPa ESE 0.9mph /  1.4km/h 6mph /  9.7km/h 73% 0in /  0.0mm 390 W/m2
16:42 66.7 °F /  19.3 °C 57.4 °F /  14.1 °C 30in /  1014.2hPa ENE 4mph /  6.4km/h 6mph /  9.7km/h 72% 0in /  0.0mm 373 W/m2
16:47 66.7 °F /  19.3 °C 57 °F /  13.9 °C 30in /  1014.2hPa ENE 0.9mph /  1.4km/h 7mph /  11.3km/h 71% 0in /  0.0mm 323 W/m2
16:52 66.9 °F /  19.4 °C 57.2 °F /  14 °C 30in /  1014.2hPa NNE 2.9mph /  4.7km/h 5mph /  8km/h 71% 0in /  0.0mm 322 W/m2
16:57 67.3 °F /  19.6 °C 57.6 °F /  14.2 °C 30in /  1014.2hPa NNE 2mph /  3.2km/h 5mph /  8km/h 71% 0in /  0.0mm 318 W/m2
17:02 67.5 °F /  19.7 °C 57 °F /  13.9 °C 30in /  1014.2hPa SW 0.9mph /  1.4km/h 9mph /  14.5km/h 69% 0in /  0.0mm 283 W/m2
17:07 67.5 °F /  19.7 °C 57.4 °F /  14.1 °C 30in /  1014.2hPa NNW 0.9mph /  1.4km/h 3mph /  4.8km/h 70% 0in /  0.0mm 278 W/m2
17:12 67.5 °F /  19.7 °C 57.4 °F /  14.1 °C 30in /  1014.2hPa East 0.9mph /  1.4km/h 3mph /  4.8km/h 70% 0in /  0.0mm 276 W/m2
17:17 67.6 °F /  19.8 °C 57.6 °F /  14.2 °C 30in /  1014.2hPa NE 0.9mph /  1.4km/h 4mph /  6.4km/h 70% 0in /  0.0mm 318 W/m2
17:22 67.8 °F /  19.9 °C 57.7 °F /  14.3 °C 29.9in /  1013.9hPa ENE 0.9mph /  1.4km/h 4mph /  6.4km/h 70% 0in /  0.0mm 322 W/m2
17:27 68 °F /  20 °C 57.9 °F /  14.4 °C 29.9in /  1013.9hPa NE 4mph /  6.4km/h 6mph /  9.7km/h 70% 0in /  0.0mm 302 W/m2
17:32 68.2 °F /  20.1 °C 58.1 °F /  14.5 °C 29.9in /  1013.9hPa NNW 2mph /  3.2km/h 5mph /  8km/h 70% 0in /  0.0mm 364 W/m2
17:37 68.2 °F /  20.1 °C 58.1 °F /  14.5 °C 29.9in /  1013.9hPa NNW 0.9mph /  1.4km/h 2mph /  3.2km/h 70% 0in /  0.0mm 339 W/m2
17:42 68.4 °F /  20.2 °C 57 °F /  13.9 °C 29.9in /  1013.9hPa NNE 2mph /  3.2km/h 6mph /  9.7km/h 67% 0in /  0.0mm 237 W/m2
17:47 68.2 °F /  20.1 °C 57.2 °F /  14 °C 29.9in /  1013.9hPa NE 0.9mph /  1.4km/h 3mph /  4.8km/h 68% 0in /  0.0mm 243 W/m2
17:52 68.2 °F /  20.1 °C 56.8 °F /  13.8 °C 29.9in /  1013.9hPa Calm   3mph /  4.8km/h 67% 0in /  0.0mm 244 W/m2
17:57 68.4 °F /  20.2 °C 56.5 °F /  13.6 °C 29.9in /  1013.9hPa SSE 2.9mph /  4.7km/h 8mph /  12.9km/h 66% 0in /  0.0mm 631 W/m2
18:02 68.7 °F /  20.4 °C 56.5 °F /  13.6 °C 29.9in /  1013.9hPa ENE 2.9mph /  4.7km/h 6mph /  9.7km/h 65% 0in /  0.0mm 543 W/m2
18:07 69.3 °F /  20.7 °C 56.5 °F /  13.6 °C 29.9in /  1013.9hPa Calm   4mph /  6.4km/h 64% 0in /  0.0mm 545 W/m2
18:12 69.6 °F /  20.9 °C 56.5 °F /  13.6 °C 29.9in /  1013.9hPa NNE 2.9mph /  4.7km/h 8mph /  12.9km/h 63% 0in /  0.0mm 503 W/m2
18:17 69.6 °F /  20.9 °C 55.9 °F /  13.3 °C 29.9in /  1013.9hPa ENE 6.9mph /  11.1km/h 9mph /  14.5km/h 62% 0in /  0.0mm 496 W/m2
18:22 69.4 °F /  20.8 °C 55.9 °F /  13.3 °C 29.9in /  1013.9hPa North 6.9mph /  11.1km/h 7mph /  11.3km/h 62% 0in /  0.0mm 462 W/m2
18:27 69.4 °F /  20.8 °C 55.9 °F /  13.3 °C 29.9in /  1013.9hPa East 2.9mph /  4.7km/h 9mph /  14.5km/h 62% 0in /  0.0mm 394 W/m2
18:32 69.3 °F /  20.7 °C 54.9 °F /  12.7 °C 29.9in /  1013.9hPa NNE 2mph /  3.2km/h 9mph /  14.5km/h 60% 0in /  0.0mm 396 W/m2
18:37 69.3 °F /  20.7 °C 55.2 °F /  12.9 °C 30in /  1014.2hPa ENE 2.9mph /  4.7km/h 3mph /  4.8km/h 61% 0in /  0.0mm 357 W/m2
18:42 69.1 °F /  20.6 °C 53.6 °F /  12 °C 30in /  1014.2hPa Calm   6mph /  9.7km/h 58% 0in /  0.0mm 332 W/m2
18:47 69.1 °F /  20.6 °C 53.6 °F /  12 °C 30in /  1014.2hPa NNW 2.9mph /  4.7km/h 4mph /  6.4km/h 58% 0in /  0.0mm 292 W/m2
18:52 69.1 °F /  20.6 °C 53.2 °F /  11.8 °C 30in /  1014.2hPa ENE 2mph /  3.2km/h 10mph /  16.1km/h 57% 0in /  0.0mm 216 W/m2
18:57 69.1 °F /  20.6 °C 53.2 °F /  11.8 °C 30in /  1014.2hPa ENE 2mph /  3.2km/h 5mph /  8km/h 57% 0in /  0.0mm 70 W/m2
19:02 69.1 °F /  20.6 °C 53.6 °F /  12 °C 30in /  1014.2hPa East 2mph /  3.2km/h 10mph /  16.1km/h 58% 0in /  0.0mm 70 W/m2
19:07 69.3 °F /  20.7 °C 53.4 °F /  11.9 °C 30in /  1014.2hPa ENE 2.9mph /  4.7km/h 6mph /  9.7km/h 57% 0in /  0.0mm 74 W/m2
19:12 68.5 °F /  20.3 °C 52.2 °F /  11.2 °C 30in /  1014.2hPa NNE 2.9mph /  4.7km/h 8mph /  12.9km/h 56% 0in /  0.0mm 77 W/m2
19:17 68 °F /  20 °C 51.8 °F /  11 °C 30in /  1014.2hPa ENE 2.9mph /  4.7km/h 9mph /  14.5km/h 56% 0in /  0.0mm 74 W/m2
19:22 67.5 °F /  19.7 °C 51.6 °F /  10.9 °C 30in /  1014.2hPa North 2.9mph /  4.7km/h 5mph /  8km/h 57% 0in /  0.0mm 72 W/m2
19:27 67.5 °F /  19.7 °C 51.6 °F /  10.9 °C 30in /  1014.2hPa ENE 4mph /  6.4km/h 5mph /  8km/h 57% 0in /  0.0mm 69 W/m2
19:32 67.5 °F /  19.7 °C 51.3 °F /  10.7 °C 30in /  1014.2hPa ENE 2mph /  3.2km/h 5mph /  8km/h 56% 0in /  0.0mm 63 W/m2
19:37 67.3 °F /  19.6 °C 51.1 °F /  10.6 °C 30in /  1014.2hPa NE 4mph /  6.4km/h 7mph /  11.3km/h 56% 0in /  0.0mm 62 W/m2
19:42 67.3 °F /  19.6 °C 51.4 °F /  10.8 °C 30in /  1014.2hPa ESE 0.9mph /  1.4km/h 5mph /  8km/h 57% 0in /  0.0mm 60 W/m2
19:47 66.7 °F /  19.3 °C 51.1 °F /  10.6 °C 30in /  1014.2hPa WNW 6.9mph /  11.1km/h 7mph /  11.3km/h 57% 0in /  0.0mm 58 W/m2
19:52 66.6 °F /  19.2 °C 51.3 °F /  10.7 °C 30in /  1014.6hPa NNE 6mph /  9.7km/h 9mph /  14.5km/h 58% 0in /  0.0mm 54 W/m2
19:57 66.4 °F /  19.1 °C 51.6 °F /  10.9 °C 30in /  1014.6hPa SE 4mph /  6.4km/h 8mph /  12.9km/h 59% 0in /  0.0mm 79 W/m2
20:02 66.2 °F /  19 °C 51.4 °F /  10.8 °C 30in /  1014.6hPa Calm   3mph /  4.8km/h 59% 0in /  0.0mm 149 W/m2
20:07 66 °F /  18.9 °C 51.3 °F /  10.7 °C 30in /  1014.6hPa ENE 2.9mph /  4.7km/h 6mph /  9.7km/h 59% 0in /  0.0mm 54 W/m2
20:12 66 °F /  18.9 °C 51.3 °F /  10.7 °C 30in /  1014.6hPa Calm   6mph /  9.7km/h 59% 0in /  0.0mm 54 W/m2
20:17 65.8 °F /  18.8 °C 51.1 °F /  10.6 °C 30in /  1014.2hPa NNW 2.9mph /  4.7km/h 6mph /  9.7km/h 59% 0in /  0.0mm 49 W/m2
20:22 65.7 °F /  18.7 °C 50.9 °F /  10.5 °C 30in /  1014.6hPa ESE 2.9mph /  4.7km/h 7mph /  11.3km/h 59% 0in /  0.0mm 51 W/m2
20:27 65.7 °F /  18.7 °C 50.9 °F /  10.5 °C 30in /  1014.6hPa North 2.9mph /  4.7km/h 5mph /  8km/h 59% 0in /  0.0mm 58 W/m2
20:32 65.7 °F /  18.7 °C 51.4 °F /  10.8 °C 30in /  1014.6hPa NNW 2.9mph /  4.7km/h 5mph /  8km/h 60% 0in /  0.0mm 46 W/m2
20:37 65.3 °F /  18.5 °C 50.5 °F /  10.3 °C 30in /  1014.6hPa East 2mph /  3.2km/h 4mph /  6.4km/h 59% 0in /  0.0mm 54 W/m2
20:42 65.1 °F /  18.4 °C 50.9 °F /  10.5 °C 30in /  1014.6hPa NNE 2mph /  3.2km/h 2mph /  3.2km/h 60% 0in /  0.0mm 51 W/m2
20:47 64.9 °F /  18.3 °C 51.1 °F /  10.6 °C 30in /  1014.6hPa NNE 4mph /  6.4km/h 7mph /  11.3km/h 61% 0in /  0.0mm 46 W/m2
20:53 64.8 °F /  18.2 °C 51.4 °F /  10.8 °C 30in /  1014.6hPa NNE 0.9mph /  1.4km/h 8mph /  12.9km/h 62% 0in /  0.0mm 39 W/m2
20:58 64.6 °F /  18.1 °C 51.3 °F /  10.7 °C 30in /  1014.6hPa NNW 0.9mph /  1.4km/h 3mph /  4.8km/h 62% 0in /  0.0mm 25 W/m2
21:03 64.4 °F /  18 °C 51.6 °F /  10.9 °C 30in /  1014.6hPa NE 4mph /  6.4km/h 4mph /  6.4km/h 63% 0in /  0.0mm 21 W/m2
21:08 64.2 °F /  17.9 °C 51.8 °F /  11 °C 30in /  1014.6hPa ENE 0.9mph /  1.4km/h 2mph /  3.2km/h 64% 0in /  0.0mm 25 W/m2
21:13 64 °F /  17.8 °C 52 °F /  11.1 °C 30in /  1014.6hPa North 2.9mph /  4.7km/h 6mph /  9.7km/h 65% 0in /  0.0mm 26 W/m2
21:18 64 °F /  17.8 °C 52 °F /  11.1 °C 30in /  1014.6hPa NNW 0.9mph /  1.4km/h 4mph /  6.4km/h 65% 0in /  0.0mm 21 W/m2
21:23 63.9 °F /  17.7 °C 52.3 °F /  11.3 °C 30in /  1014.6hPa ENE 2.9mph /  4.7km/h 3mph /  4.8km/h 66% 0in /  0.0mm 16 W/m2
21:28 63.7 °F /  17.6 °C 52.2 °F /  11.2 °C 30in /  1014.6hPa ENE 0.9mph /  1.4km/h 4mph /  6.4km/h 66% 0in /  0.0mm 12 W/m2
21:33 63.5 °F /  17.5 °C 52 °F /  11.1 °C 30in /  1014.6hPa SE 2.9mph /  4.7km/h 6mph /  9.7km/h 66% 0in /  0.0mm 9 W/m2
21:38 63.3 °F /  17.4 °C 52.2 °F /  11.2 °C 30in /  1014.6hPa SE 2.9mph /  4.7km/h 3mph /  4.8km/h 67% 0in /  0.0mm 7 W/m2
21:43 63.1 °F /  17.3 °C 52.3 °F /  11.3 °C 30in /  1014.6hPa SSE 2.9mph /  4.7km/h 4mph /  6.4km/h 68% 0in /  0.0mm 5 W/m2
21:48 62.8 °F /  17.1 °C 52.5 °F /  11.4 °C 30in /  1014.6hPa East 2mph /  3.2km/h 3mph /  4.8km/h 69% 0in /  0.0mm 5 W/m2
21:53 62.6 °F /  17 °C 52.3 °F /  11.3 °C 30in /  1014.6hPa East 2mph /  3.2km/h 4mph /  6.4km/h 69% 0in /  0.0mm 0 W/m2
21:58 62.4 °F /  16.9 °C 52.5 °F /  11.4 °C 30in /  1014.6hPa ESE 2mph /  3.2km/h 2mph /  3.2km/h 70% 0in /  0.0mm 0 W/m2
22:03 62.4 °F /  16.9 °C 52.5 °F /  11.4 °C 30in /  1014.9hPa ESE 0.9mph /  1.4km/h 2mph /  3.2km/h 70% 0in /  0.0mm 0 W/m2
22:08 62.2 °F /  16.8 °C 52.7 °F /  11.5 °C 30in /  1014.9hPa ENE 0.9mph /  1.4km/h 4mph /  6.4km/h 71% 0in /  0.0mm 0 W/m2
22:13 62.1 °F /  16.7 °C 52.5 °F /  11.4 °C 30in /  1014.9hPa East 2mph /  3.2km/h 3mph /  4.8km/h 71% 0in /  0.0mm 0 W/m2
22:18 62.1 °F /  16.7 °C 52.9 °F /  11.6 °C 30in /  1014.9hPa East 0.9mph /  1.4km/h 2mph /  3.2km/h 72% 0in /  0.0mm 0 W/m2
22:23 61.9 °F /  16.6 °C 52.7 °F /  11.5 °C 30in /  1014.9hPa ENE 0.9mph /  1.4km/h 1mph /  1.6km/h 72% 0in /  0.0mm 0 W/m2
22:28 61.5 °F /  16.4 °C 52.7 °F /  11.5 °C 30in /  1014.9hPa ESE 2mph /  3.2km/h 2mph /  3.2km/h 73% 0in /  0.0mm 0 W/m2
22:33 61.5 °F /  16.4 °C 52.7 °F /  11.5 °C 30in /  1014.9hPa ESE 0.9mph /  1.4km/h 1mph /  1.6km/h 73% 0in /  0.0mm 0 W/m2
22:38 61.3 °F /  16.3 °C 53.1 °F /  11.7 °C 30in /  1014.9hPa East 2mph /  3.2km/h 3mph /  4.8km/h 74% 0in /  0.0mm 0 W/m2
22:43 61.3 °F /  16.3 °C 53.1 °F /  11.7 °C 30in /  1014.9hPa East 0.9mph /  1.4km/h 2mph /  3.2km/h 74% 0in /  0.0mm 0 W/m2
22:48 61.3 °F /  16.3 °C 53.1 °F /  11.7 °C 30in /  1014.9hPa Calm   2mph /  3.2km/h 74% 0in /  0.0mm 0 W/m2
22:53 61.2 °F /  16.2 °C 53.2 °F /  11.8 °C 30in /  1014.9hPa East 0.9mph /  1.4km/h 1mph /  1.6km/h 75% 0in /  0.0mm 0 W/m2
22:58 61.2 °F /  16.2 °C 53.2 °F /  11.8 °C 30in /  1014.6hPa East 0.9mph /  1.4km/h 1mph /  1.6km/h 75% 0in /  0.0mm 0 W/m2
23:03 60.8 °F /  16 °C 52.9 °F /  11.6 °C 30in /  1014.9hPa Calm   2mph /  3.2km/h 75% 0in /  0.0mm 0 W/m2
23:08 60.6 °F /  15.9 °C 53.1 °F /  11.7 °C 30in /  1014.9hPa Calm   1mph /  1.6km/h 76% 0in /  0.0mm 0 W/m2
23:13 60.4 °F /  15.8 °C 53.2 °F /  11.8 °C 30in /  1014.9hPa East 0.9mph /  1.4km/h 1mph /  1.6km/h 77% 0in /  0.0mm 0 W/m2
23:18 60.3 °F /  15.7 °C 53.1 °F /  11.7 °C 30in /  1014.6hPa Calm   1mph /  1.6km/h 77% 0in /  0.0mm 0 W/m2
23:23 60.1 °F /  15.6 °C 53.2 °F /  11.8 °C 30in /  1014.6hPa Calm     78% 0in /  0.0mm 0 W/m2
23:28 59.7 °F /  15.4 °C 52.9 °F /  11.6 °C 30in /  1014.6hPa East 0.9mph /  1.4km/h 1mph /  1.6km/h 78% 0in /  0.0mm 0 W/m2
23:33 59.5 °F /  15.3 °C 53.1 °F /  11.7 °C 30in /  1014.6hPa Calm     79% 0in /  0.0mm 0 W/m2
23:38 59.4 °F /  15.2 °C 52.9 °F /  11.6 °C 30in /  1014.6hPa Calm   1mph /  1.6km/h 79% 0in /  0.0mm 0 W/m2
23:43 59.2 °F /  15.1 °C 53.1 °F /  11.7 °C 30in /  1014.6hPa East 0.9mph /  1.4km/h 1mph /  1.6km/h 80% 0in /  0.0mm 0 W/m2
23:48 59 °F /  15 °C 52.9 °F /  11.6 °C 30in /  1014.6hPa East 0.9mph /  1.4km/h 2mph /  3.2km/h 80% 0in /  0.0mm 0 W/m2
23:53 58.8 °F /  14.9 °C 53.1 °F /  11.7 °C 30in /  1014.6hPa Calm   1mph /  1.6km/h 81% 0in /  0.0mm 0 W/m2
23:58 58.6 °F /  14.8 °C 52.9 °F /  11.6 °C 30in /  1014.6hPa Calm     81% 0in /  0.0mm 0 W/m2
Juneau County Weather
Compliments of Weather Underground - 4 mb